Terminal Aerodrome Forecast
Issued by NWS Wilmington, OH

Current Version | Previous Version | Graphics & Text | Print | Product List | Glossary On
Versions: 1 2 3 4 5 6 7 8 9 10 11 12 13 14 15 16 17 18 19 20 21 22 23 24 25
000
FTUS41 KILN 171700
TAFCVG
TAF
KCVG 171728Z 1718/1824 27008KT P6SM OVC014
     FM180000 31006KT P6SM OVC014
     FM181200 VRB03KT P6SM BKN016
     FM181800 VRB03KT P6SM BKN022=

USA.gov is the U.S. government's official web portal to all federal, state and local government web resources and services.